Latest Weather Observations for Bombala AWS

IDN60801

Issued at 5:33 am EDT Friday 6 March 2015 (issued every 30 minutes, with the page automatically refreshed every 10 minutes)

About weather observations | Map of weather stations | Latest weather observations for NSW | Other Formats
Station Details ID: 070328 Name: BOMBALA AWS Lat: -37.00 Lon: 149.23 Height: 760.5 m
Data from the previous 72 hours. | See also: Recent months at Bombala AWS
Date/Time
EDT
Temp
°C
App
Temp
°C
Dew
Point
Rel
Hum
%
Delta-T
°C
Wind Press
QNH
hPa
Press
MSL
hPa
Rain
since 9 am
mm
Dir
 
Spd
km/h
Gust
km/h
Spd
kts
Gust
kts
06/05:30am 6.5 1.0 1.8 72 2.0 WNW 20 26 11 14 1005.9 1003.6 0.2
06/05:00am 5.7 0.3 2.2 78 1.5 WNW 20 22 11 12 1006.4 1004.2 0.2
06/04:30am 6.5 1.2 2.0 73 1.9 WNW 19 20 10 11 1006.7 1004.5 0.2
06/04:00am 5.9 1.1 2.7 80 1.4 WNW 17 20 9 11 1007.3 1005.0 0.2
06/03:30am 5.5 2.5 2.3 80 1.4 N 7 11 4 6 1007.6 1005.4 0.2
06/03:00am 5.8 2.9 2.6 80 1.4 NNE 7 13 4 7 1008.1 1005.9 0.2
06/02:30am 4.8 1.5 2.3 84 1.1 NNE 9 11 5 6 1008.6 1006.3 0.2
06/02:00am 4.3 1.3 1.8 84 1.0 N 7 9 4 5 1009.3 1007.1 0.2
06/01:30am 5.4 2.4 2.1 79 1.4 NNE 7 11 4 6 1009.5 1007.3 0.2
06/01:00am 6.6 4.3 2.7 76 1.7 N 4 6 2 3 1010.0 1007.8 0.2
06/12:30am 5.4 2.4 2.2 80 1.4 WNW 7 11 4 6 1010.1 1007.9 0.2
06/12:00am 6.5 2.8 2.6 76 1.7 NW 11 15 6 8 1010.6 1008.4 0.2
 
Date/Time
EDT
Temp
°C
App
Temp
°C
Dew
Point
Rel
Hum
%
Delta-T
°C
Wind Press
QNH
hPa
Press
MSL
hPa
Rain
since 9 am
mm
Dir
 
Spd
km/h
Gust
km/h
Spd
kts
Gust
kts
05/11:30pm 6.3 3.5 2.2 75 1.8 NNW 6 7 3 4 1011.0 1008.9 0.2
05/11:00pm 7.4 2.9 2.3 70 2.2 W 15 19 8 10 1011.3 1009.1 0.2
05/10:30pm 7.6 3.5 2.5 70 2.2 W 13 17 7 9 1012.1 1009.9 0.2
05/10:00pm 8.4 3.6 2.6 67 2.6 WSW 17 22 9 12 1012.3 1010.2 0.2
05/09:30pm 7.7 4.0 2.4 69 2.3 W 11 17 6 9 1012.7 1010.5 0.2
05/09:00pm 8.8 4.3 2.4 64 2.8 WSW 15 19 8 10 1012.3 1010.2 0.2
05/08:30pm 9.3 3.8 1.9 60 3.2 WSW 20 28 11 15 1012.1 1009.9 0.2
05/08:00pm 9.9 3.6 1.5 56 3.7 WSW 24 39 13 21 1012.2 1010.1 0.2
05/07:30pm 9.8 4.2 1.2 55 3.7 WSW 20 28 11 15 1012.4 1010.3 0.2
05/07:00pm 11.0 5.4 1.5 52 4.2 WSW 20 33 11 18 1012.6 1010.4 0.2
05/06:30pm 11.8 3.8 0.3 45 5.0 WSW 32 44 17 24 1012.3 1010.2 0.2
05/06:00pm 12.9 4.7 0.6 43 5.4 WSW 33 44 18 24 1012.1 1009.9 0.2
05/05:30pm 13.4 5.9 1.1 43 5.5 SW 30 43 16 23 1012.1 1009.9 0.2
05/05:00pm 13.4 4.1 0.8 42 5.6 WSW 39 57 21 31 1011.9 1009.7 0.2
05/04:43pm 13.3 3.0 0.0 40 5.8 WSW 44 65 24 35 1011.9 1009.7 0.2
05/04:30pm 13.8 3.8 0.8 41 5.8 WSW 43 61 23 33 1012.0 1009.8 0.2
05/04:00pm 13.6 3.4 -0.1 39 6.0 WSW 43 67 23 36 1012.3 1010.2 0.2
05/03:55pm 13.9 5.1 1.2 42 5.7 WSW 37 63 20 34 1012.2 1010.1 0.2
05/03:30pm 13.5 4.5 2.4 47 5.1 WSW 39 56 21 30 1012.2 1010.1 0.2
05/03:00pm 14.0 4.7 2.9 47 5.2 WSW 41 61 22 33 1012.3 1010.2 0.2
05/02:45pm 13.0 3.3 3.1 51 4.6 WSW 43 61 23 33 1012.7 1010.5 0.2
05/02:30pm 13.4 4.1 3.2 50 4.8 WSW 41 56 22 30 1012.6 1010.4 0.2
05/02:04pm 13.2 4.4 3.6 52 4.5 SW 39 59 21 32 1012.3 1010.2 0.2
05/02:00pm 13.2 3.9 2.7 49 4.8 SW 41 59 22 32 1012.4 1010.3 0.2
05/01:30pm 12.7 0.3 1.7 47 4.9 SW 56 78 30 42 1012.7 1010.5 0.0
05/01:00pm 13.5 1.4 0.9 42 5.6 WSW 54 74 29 40 1012.2 1010.1 0.0
05/12:30pm 13.4 2.8 0.8 42 5.6 SW 46 65 25 35 1012.6 1010.4 0.0
05/12:00pm 12.4 1.8 0.5 44 5.2 WSW 46 69 25 37 1012.1 1009.9 0.0
05/11:32am 11.8 0.9 -1.0 41 5.4 WSW 46 76 25 41 1011.9 1009.7 0.0
05/11:30am 12.6 2.4 -0.3 41 5.5 WSW 43 57 23 31 1012.0 1009.8 0.0
05/11:00am 11.4 -0.1 0.2 46 4.8 WSW 50 74 27 40 1011.6 1009.4 0.0
05/10:30am 11.1 0.0 0.2 47 4.7 WSW 48 69 26 37 1011.7 1009.5 0.0
05/10:00am 10.4 -1.0 0.7 51 4.2 SW 50 69 27 37 1011.0 1008.9 0.0
05/09:38am 9.9 -1.2 2.3 59 3.4 WSW 50 69 27 37 1009.9 1007.7 0.0
05/09:30am 9.6 -1.8 2.7 62 3.1 SW 52 70 28 38 1010.1 1007.9 0.0
05/09:03am 8.9 -0.1 4.3 73 2.1 WSW 41 61 22 33 1010.4 1008.2 0.0
05/09:00am 8.9 -0.5 4.5 74 2.0 WSW 43 61 23 33 1010.4 1008.2 0.0
05/08:30am 7.9 -1.6 6.5 91 0.7 WSW 46 63 25 34 1009.8 1007.5 0.0
05/08:00am 7.8 -1.0 7.2 96 0.3 SW 43 63 23 34 1008.9 1006.7 0.0
05/07:40am 9.1 -0.9 7.9 92 0.6 SW 50 69 27 37 1008.4 1006.1 0.0
05/07:31am 10.2 3.2 8.5 89 0.9 SW 35 69 19 37 1007.8 1005.6 0.0
05/07:30am 10.4 4.2 9.3 93 0.6 SW 32 67 17 36 1007.8 1005.6 0.0
05/07:28am 10.5 5.2 9.7 95 0.4 SW 28 43 15 23 1007.8 1005.6 0.0
05/07:00am 9.1 6.6 8.2 94 0.5 W 11 15 6 8 1006.4 1004.2 0.0
05/06:30am 9.9 7.0 9.8 99 0.1 W 15 17 8 9 1006.3 1004.0 0.0
05/06:00am 8.0 5.8 7.9 99 0.0 SW 9 15 5 8 1006.2 1003.9 0.0
05/05:30am 8.7 7.1 8.7 100 0.0 S 7 9 4 5 1006.1 1003.8 0.0
05/05:00am 8.3 6.6 8.3 100 0.0 SE 7 9 4 5 1006.0 1003.7 0.0
05/04:30am 8.6 7.0 8.6 100 0.0 ESE 7 9 4 5 1005.9 1003.6 0.0
05/04:00am 9.5 8.3 9.5 100 0.0 E 6 11 3 6 1005.8 1003.5 0.0
05/03:30am 10.5 9.9 10.5 100 0.0 ENE 4 6 2 3 1005.9 1003.6 0.0
05/03:00am 10.9 11.2 10.9 100 0.0 CALM 0 0 0 0 1006.3 1004.0 0.0
05/02:30am 11.5 11.6 11.5 100 0.0 NW 2 4 1 2 1006.7 1004.5 0.0
05/02:00am 11.9 11.7 11.9 100 0.0 NNW 4 6 2 3 1007.3 1005.0 0.0
05/01:30am 12.2 10.8 12.2 100 0.0 NNW 11 15 6 8 1007.6 1005.4 0.0
05/01:00am 12.9 12.1 12.9 100 0.0 NNW 9 13 5 7 1008.2 1006.0 0.0
05/12:30am 13.2 13.1 13.2 100 0.0 N 6 6 3 3 1008.6 1006.3 0.0
05/12:00am 13.3 14.0 13.3 100 0.0 SSE 2 4 1 2 1009.1 1006.9 0.0
 
Date/Time
EDT
Temp
°C
App
Temp
°C
Dew
Point
Rel
Hum
%
Delta-T
°C
Wind Press
QNH
hPa
Press
MSL
hPa
Rain
since 9 am
mm
Dir
 
Spd
km/h
Gust
km/h
Spd
kts
Gust
kts
04/11:30pm 13.2 12.9 13.2 100 0.0 SSE 7 11 4 6 1009.6 1007.4 0.0
04/11:00pm 12.9 12.1 12.9 100 0.0 SSE 9 11 5 6 1010.1 1007.9 0.0
04/10:30pm 13.2 12.5 13.2 100 0.0 SSE 9 13 5 7 1010.6 1008.4 0.0
04/10:00pm 13.2 11.7 13.2 100 0.0 SE 13 15 7 8 1011.0 1008.9 0.0
04/09:30pm 13.9 13.4 13.9 100 0.0 SE 9 13 5 7 1011.0 1008.9 0.0
04/09:00pm 15.0 14.8 14.8 99 0.1 SE 9 15 5 8 1011.2 1009.0 0.0
04/08:30pm 15.7 15.8 15.5 99 0.1 ESE 9 15 5 8 1010.9 1008.7 0.0
04/08:00pm 15.8 15.9 15.6 99 0.1 ESE 9 13 5 7 1010.6 1008.4 0.0
04/07:30pm 16.1 16.5 15.3 95 0.5 E 7 13 4 7 1010.5 1008.3 0.0
04/07:00pm 18.1 18.5 16.3 89 1.1 E 9 15 5 8 1010.5 1008.3 0.0
04/06:30pm 19.4 19.7 16.1 81 2.0 ESE 9 15 5 8 1010.5 1008.3 0.0
04/06:00pm 20.7 19.9 16.1 75 2.9 ESE 15 22 8 12 1010.4 1008.2 0.0
04/05:30pm 22.1 21.3 16.1 69 3.7 ESE 15 24 8 13 1010.2 1008.0 0.0
04/05:00pm 23.4 22.5 14.9 59 5.2 ESE 13 20 7 11 1010.1 1007.9 0.0
04/04:30pm 24.3 22.0 14.1 53 6.2 SSE 19 26 10 14 1010.4 1008.2 0.0
04/04:00pm 25.2 22.5 11.7 43 8.0 SE 17 22 9 12 1010.7 1008.5 0.0
04/03:30pm 25.9 23.8 9.7 36 9.2 SW 11 20 6 11 1011.3 1009.1 0.0
04/03:00pm 25.5 22.2 6.2 29 10.4 WNW 13 20 7 11 1011.7 1009.5 0.0
04/02:30pm 25.9 22.9 7.5 31 10.1 NW 13 22 7 12 1012.0 1009.8 0.0
04/02:00pm 24.6 22.3 5.9 30 9.9 SW 7 19 4 10 1012.4 1010.3 0.0
04/01:30pm 24.3 21.3 7.9 35 9.0 NNW 13 17 7 9 1012.9 1010.7 0.0
04/01:00pm 22.9 19.8 7.1 36 8.5 N 13 24 7 13 1013.3 1011.2 0.0
04/12:30pm 21.8 19.2 12.1 54 5.7 N 17 22 9 12 1014.0 1011.8 0.0
04/12:00pm 20.7 19.1 12.9 61 4.6 NNW 13 20 7 11 1014.6 1012.5 0.0
04/11:30am 18.7 17.3 12.2 66 3.7 NNW 11 17 6 9 1015.1 1013.0 0.0
04/11:00am 17.8 16.3 12.0 69 3.3 NNW 11 17 6 9 1015.7 1013.6 0.0
04/10:30am 16.7 15.8 12.7 77 2.3 N 9 15 5 8 1016.0 1013.9 0.0
04/10:00am 16.1 15.8 12.8 81 1.9 NNW 6 9 3 5 1016.2 1014.1 0.0
04/09:30am 14.3 14.0 12.7 90 0.9 NW 6 9 3 5 1016.5 1014.4 0.0
04/09:00am 13.7 13.6 13.4 98 0.2 WNW 6 9 3 5 1016.4 1014.3 0.0
04/08:30am 13.2 12.4 13.0 99 0.1 WNW 9 11 5 6 1016.2 1014.1 0.0
04/08:00am 12.7 12.8 12.7 100 0.0 W 4 6 2 3 1016.0 1013.9 0.0
04/07:30am 12.3 11.9 12.3 100 0.0 SW 6 7 3 4 1015.9 1013.8 0.0
04/07:00am 11.8 12.4 11.8 100 0.0 CALM 0 0 0 0 1015.5 1013.3 0.0
04/06:30am 11.5 12.0 11.5 100 0.0 CALM 0 2 0 1 1015.0 1012.9 0.0
04/06:00am 11.4 11.5 11.4 100 0.0 WSW 2 4 1 2 1014.9 1012.8 0.0
04/05:30am 11.3 11.7 11.3 100 0.0 CALM 0 0 0 0 1014.9 1012.8 0.0
04/05:00am 10.5 10.7 10.5 100 0.0 CALM 0 0 0 0 1014.9 1012.8 0.0
04/04:30am 10.8 10.7 10.8 100 0.0 WSW 2 4 1 2 1014.9 1012.8 0.0
04/04:00am 10.4 10.6 10.4 100 0.0 CALM 0 2 0 1 1015.2 1013.1 0.0
04/03:30am 11.1 10.3 11.1 100 0.0 WSW 6 6 3 3 1015.4 1013.2 0.0
04/03:00am 10.0 8.9 10.0 100 0.0 W 6 6 3 3 1015.6 1013.4 0.0
04/02:30am 9.2 7.9 9.1 99 0.1 W 6 6 3 3 1015.9 1013.8 0.0
04/02:00am 9.8 8.4 9.7 99 0.1 W 7 7 4 4 1016.2 1014.1 0.0
04/01:30am 10.0 9.3 9.9 99 0.1 NW 4 6 2 3 1016.4 1014.3 0.0
04/01:00am 10.6 10.4 10.4 99 0.1 N 2 4 1 2 1016.8 1014.6 0.0
04/12:30am 10.6 9.6 10.4 99 0.1 N 6 7 3 4 1017.2 1015.1 0.0
04/12:00am 11.0 10.1 10.8 99 0.1 N 6 7 3 4 1017.5 1015.4 0.0
 
Date/Time
EDT
Temp
°C
App
Temp
°C
Dew
Point
Rel
Hum
%
Delta-T
°C
Wind Press
QNH
hPa
Press
MSL
hPa
Rain
since 9 am
mm
Dir
 
Spd
km/h
Gust
km/h
Spd
kts
Gust
kts
03/11:30pm 11.6 10.9 11.4 99 0.1 NE 6 6 3 3 1017.8 1015.7 0.0
03/11:00pm 12.0 12.2 11.8 99 0.1 ENE 2 4 1 2 1017.9 1015.9 0.0
03/10:30pm 11.8 11.5 11.6 99 0.1 ENE 4 6 2 3 1017.8 1015.7 0.0
03/10:00pm 11.9 11.3 11.7 99 0.1 ENE 6 6 3 3 1017.7 1015.6 0.0
03/09:30pm 12.6 11.5 12.1 97 0.3 ENE 9 13 5 7 1017.8 1015.7 0.0
03/09:00pm 12.9 12.2 12.0 94 0.5 ENE 7 11 4 6 1017.7 1015.6 0.0
03/08:30pm 13.7 13.2 12.8 94 0.5 ESE 7 11 4 6 1017.4 1015.3 0.0
03/08:00pm 14.4 13.2 12.8 90 0.9 ESE 11 15 6 8 1016.9 1014.8 0.0
03/07:30pm 15.0 13.5 12.0 82 1.7 ESE 11 15 6 8 1016.6 1014.5 0.0
03/07:00pm 16.0 13.9 12.4 79 2.1 SE 15 19 8 10 1016.5 1014.4 0.0
03/06:30pm 17.1 13.5 11.8 71 3.0 SE 22 28 12 15 1016.3 1014.2 0.0
03/06:00pm 18.0 14.1 12.2 69 3.3 SSE 24 30 13 16 1016.0 1013.9 0.0
03/05:30pm 19.1 16.3 13.1 68 3.5 SE 20 26 11 14 1016.0 1013.9 0.0
03/05:00pm 19.5 15.9 13.0 66 3.8 SE 24 32 13 17 1016.0 1013.9 0.0
03/04:30pm 19.6 15.8 12.4 63 4.2 SE 24 32 13 17 1015.8 1013.7 0.0
03/04:00pm 21.5 19.0 13.4 60 4.8 SE 19 28 10 15 1015.8 1013.7 0.0
03/03:30pm 21.3 19.5 13.2 60 4.8 SSE 15 22 8 12 1016.0 1013.9 0.0
03/03:00pm 19.7 19.4 13.2 66 3.8 SE 7 11 4 6 1016.4 1014.3 0.0
03/02:30pm 19.7 19.1 13.4 67 3.7 SE 9 13 5 7 1016.9 1014.8 0.0
03/02:00pm 19.1 18.2 12.6 66 3.8 SE 9 15 5 8 1017.3 1015.2 0.0
03/01:30pm 19.7 18.8 13.6 68 3.6 SE 11 15 6 8 1017.5 1015.4 0.0
03/01:00pm 18.8 18.4 13.0 69 3.4 ESE 7 13 4 7 1017.7 1015.6 0.0
03/12:30pm 18.6 17.9 12.1 66 3.7 SE 7 13 4 7 1017.9 1015.9 0.0
03/12:00pm 18.1 17.5 11.7 66 3.6 SE 6 9 3 5 1017.9 1015.9 0.0
03/11:30am 17.8 17.0 11.1 65 3.8 ESE 6 11 3 6 1018.3 1016.2 0.0
03/11:00am 17.4 17.4 12.5 73 2.8 ENE 4 7 2 4 1018.4 1016.3 0.0
03/10:30am 16.4 16.3 10.9 70 3.1 S 2 6 1 3 1018.5 1016.4 0.0
03/10:00am 15.9 15.1 11.7 76 2.4 S 7 13 4 7 1018.5 1016.4 0.0
03/09:30am 14.8 15.9 14.6 99 0.1 NNW 2 4 1 2 1018.0 1016.0 0.0
03/09:00am 14.0 14.5 14.0 100 0.0 NNW 4 6 2 3 1018.0 1016.0 0.2
03/08:30am 13.3 14.3 13.3 100 0.0 CALM 0 0 0 0 1018.0 1016.0 0.2
03/08:00am 13.1 14.1 13.1 100 0.0 CALM 0 0 0 0 1017.6 1015.5 0.2
03/07:30am 12.5 12.1 12.5 100 0.0 SW 6 7 3 4 1017.4 1015.3 0.2
03/07:00am 11.9 12.5 11.9 100 0.0 CALM 0 0 0 0 1016.8 1014.6 0.2
03/06:30am 11.8 12.4 11.8 100 0.0 CALM 0 0 0 0 1016.3 1014.2 0.2
03/06:00am 11.5 11.6 11.5 100 0.0 ESE 2 4 1 2 1016.1 1014.0 0.2

Other Formats:

Comma delimited format used in spreadsheet applications
http://www.bom.gov.au/fwo/IDN60801/IDN60801.94929.axf

JavaScript Object Notation format (JSON) in row-major order
http://www.bom.gov.au/fwo/IDN60801/IDN60801.94929.json